Time;durP1;ratioP1;P1;durP2;ratioP2;P2;SDS_P1;SDS_P2;PMS_P1;PMS_P2;Temp;Humidity;BMP_temperature;BMP_pressure;BME280_temperature;BME280_humidity;BME280_pressure;Samples;Min_cycle;Max_cycle;Signal;HPM_P1;HPM_P2
2023/10/31 00:01:21;;;;;;;0.90;0.90;;;20.00;56.90;;;;;;5035502;28;20214;-84
2023/10/31 00:03:48;;;;;;;1.40;1.08;;;19.90;56.80;;;;;;5019701;28;20216;-84
2023/10/31 00:06:16;;;;;;;1.15;1.05;;;19.90;56.80;;;;;;5035630;28;20286;-84
2023/10/31 00:08:43;;;;;;;1.08;1.02;;;19.90;56.80;;;;;;5035579;28;20204;-84
2023/10/31 00:11:11;;;;;;;0.90;0.80;;;19.90;56.90;;;;;;5019189;28;20231;-84
2023/10/31 00:13:38;;;;;;;1.00;1.00;;;19.90;56.90;;;;;;5019487;28;20207;-84
2023/10/31 00:16:05;;;;;;;0.90;0.90;;;19.90;57.50;;;;;;5035543;28;20193;-84
2023/10/31 00:18:32;;;;;;;0.98;0.90;;;19.90;56.90;;;;;;5035297;28;20250;-84
2023/10/31 00:20:59;;;;;;;2.45;1.00;;;19.90;56.90;;;;;;5035854;28;20261;-84
2023/10/31 00:23:28;;;;;;;0.90;0.90;;;19.90;56.90;;;;;;5035045;28;20295;-84
2023/10/31 00:25:55;;;;;;;1.73;1.00;;;19.90;57.00;;;;;;5035439;28;20297;-84
2023/10/31 00:28:22;;;;;;;1.02;0.98;;;19.90;57.00;;;;;;5034993;28;20374;-84
2023/10/31 00:30:49;;;;;;;1.10;1.10;;;19.90;57.00;;;;;;5035759;28;20536;-84
2023/10/31 00:33:16;;;;;;;0.90;0.90;;;19.80;57.00;;;;;;5034938;28;20741;-84
2023/10/31 00:35:43;;;;;;;1.55;1.05;;;19.80;57.00;;;;;;5044153;28;20762;-84
2023/10/31 00:38:10;;;;;;;1.10;1.00;;;19.80;57.00;;;;;;5040030;28;20204;-84
2023/10/31 00:40:39;;;;;;;1.08;0.95;;;19.80;57.00;;;;;;5034826;28;20204;-84
2023/10/31 00:43:06;;;;;;;1.30;1.20;;;19.80;57.10;;;;;;5034647;28;20199;-84
2023/10/31 00:45:33;;;;;;;0.98;0.98;;;19.80;57.70;;;;;;5034321;28;20227;-84
2023/10/31 00:48:00;;;;;;;0.90;0.90;;;19.80;57.10;;;;;;5034494;28;20204;-84
2023/10/31 00:50:27;;;;;;;1.10;1.00;;;19.80;57.20;;;;;;5034284;28;20200;-84
2023/10/31 00:52:55;;;;;;;0.90;0.90;;;19.80;57.20;;;;;;5035464;28;20196;-84
2023/10/31 00:55:22;;;;;;;0.93;0.93;;;19.80;57.20;;;;;;5034418;28;20255;-84
2023/10/31 00:57:50;;;;;;;1.17;0.88;;;19.80;57.20;;;;;;5018125;28;20199;-84
2023/10/31 01:00:18;;;;;;;1.13;1.10;;;19.80;57.20;;;;;;5034288;28;20196;-84
2023/10/31 01:02:45;;;;;;;0.88;0.88;;;19.70;57.20;;;;;;5034167;28;20196;-84
2023/10/31 01:05:12;;;;;;;1.00;1.00;;;19.70;57.20;;;;;;5034175;28;20224;-84
2023/10/31 01:07:39;;;;;;;0.88;0.88;;;19.70;57.20;;;;;;5034184;28;20196;-84
2023/10/31 01:10:06;;;;;;;0.82;0.82;;;19.60;57.10;;;;;;5034262;28;20210;-84
2023/10/31 01:12:34;;;;;;;0.80;0.80;;;19.70;57.20;;;;;;5034153;28;20612;-84
2023/10/31 01:15:04;;;;;;;0.80;0.80;;;19.70;57.20;;;;;;5033995;28;20218;-84
2023/10/31 01:17:32;;;;;;;0.80;0.80;;;19.70;57.20;;;;;;5034322;28;20246;-84
2023/10/31 01:19:59;;;;;;;0.85;0.85;;;19.70;57.20;;;;;;5034168;28;20203;-84
2023/10/31 01:22:26;;;;;;;0.88;0.88;;;19.70;57.20;;;;;;5034068;28;20250;-84
2023/10/31 01:24:53;;;;;;;1.20;1.10;;;19.70;57.20;;;;;;5033656;28;20311;-84
2023/10/31 01:27:20;;;;;;;0.95;0.80;;;19.60;57.10;;;;;;5034091;28;20277;-84
2023/10/31 01:29:47;;;;;;;0.80;0.80;;;19.60;57.20;;;;;;5033857;28;20203;-84
2023/10/31 01:32:16;;;;;;;0.80;0.80;;;19.60;57.20;;;;;;5034361;28;20200;-84
2023/10/31 01:34:43;;;;;;;0.70;0.70;;;19.60;57.30;;;;;;5044526;28;20224;-84
2023/10/31 01:37:10;;;;;;;0.75;0.75;;;19.60;57.30;;;;;;5033565;28;20207;-84
2023/10/31 01:39:37;;;;;;;0.80;0.80;;;19.60;57.30;;;;;;5033424;28;20228;-84
2023/10/31 01:42:04;;;;;;;0.88;0.88;;;19.60;57.20;;;;;;5033408;28;20231;-84
2023/10/31 01:44:31;;;;;;;0.90;0.90;;;19.60;57.30;;;;;;5033116;28;20216;-85
2023/10/31 01:46:58;;;;;;;0.75;0.75;;;19.60;57.30;;;;;;5033096;28;20252;-84
2023/10/31 01:49:27;;;;;;;1.35;0.80;;;19.60;57.30;;;;;;5033275;28;20666;-84
2023/10/31 01:51:54;;;;;;;0.80;0.80;;;19.60;57.30;;;;;;5017037;28;20200;-84
2023/10/31 01:54:21;;;;;;;0.70;0.70;;;19.50;57.20;;;;;;5033901;28;20212;-84
2023/10/31 01:56:50;;;;;;;1.10;1.00;;;19.50;57.20;;;;;;5033453;28;20654;-84
2023/10/31 01:59:17;;;;;;;0.82;0.65;;;19.50;57.30;;;;;;5034134;28;20196;-84
2023/10/31 02:01:45;;;;;;;0.60;0.60;;;19.50;57.30;;;;;;5033214;28;20206;-84
2023/10/31 02:04:12;;;;;;;0.98;0.98;;;19.50;57.40;;;;;;5033364;28;20278;-84
2023/10/31 02:06:40;;;;;;;0.82;0.82;;;19.50;57.40;;;;;;5017405;28;20215;-84
2023/10/31 02:09:08;;;;;;;0.70;0.70;;;19.50;57.40;;;;;;5033282;28;20539;-84
2023/10/31 02:11:34;;;;;;;0.85;0.85;;;19.50;57.40;;;;;;5034332;28;20196;-84
2023/10/31 02:14:02;;;;;;;0.90;0.82;;;19.40;57.40;;;;;;5034463;28;20563;-84
2023/10/31 02:16:29;;;;;;;0.80;0.80;;;19.40;58.00;;;;;;5033464;28;20198;-84
2023/10/31 02:18:56;;;;;;;0.90;0.90;;;19.40;57.40;;;;;;5033020;28;20192;-84
2023/10/31 02:21:23;;;;;;;0.60;0.60;;;19.50;57.50;;;;;;5033536;28;20285;-84
2023/10/31 02:23:59;;;;;;;0.70;0.70;;;19.40;57.40;;;;;;5032793;28;20771;-84
2023/10/31 02:26:29;;;;;;;0.60;0.60;;;19.40;57.40;;;;;;5032841;28;20728;-84
2023/10/31 02:28:57;;;;;;;0.70;0.70;;;19.40;57.50;;;;;;5032820;28;20196;-84
2023/10/31 02:31:24;;;;;;;0.80;0.80;;;19.40;57.40;;;;;;5033665;28;20200;-84
2023/10/31 02:33:51;;;;;;;0.70;0.70;;;19.40;57.50;;;;;;5032952;28;20230;-84
2023/10/31 02:36:18;;;;;;;0.75;0.75;;;19.40;57.50;;;;;;5032883;28;20620;-84
2023/10/31 02:38:45;;;;;;;1.13;0.60;;;19.40;57.50;;;;;;5033058;28;20661;-84
2023/10/31 02:41:13;;;;;;;0.77;0.77;;;19.30;57.50;;;;;;5033040;28;20207;-84
2023/10/31 02:43:41;;;;;;;0.80;0.80;;;19.40;57.50;;;;;;5032653;28;20265;-84
2023/10/31 02:46:08;;;;;;;1.95;0.80;;;19.30;57.50;;;;;;5033045;28;20252;-84
2023/10/31 02:48:39;;;;;;;0.70;0.70;;;19.30;57.40;;;;;;5033084;28;20253;-84
2023/10/31 02:51:07;;;;;;;0.70;0.70;;;19.30;57.40;;;;;;5032897;28;20283;-84
2023/10/31 02:53:34;;;;;;;0.82;0.82;;;19.30;57.50;;;;;;5033014;28;20196;-84
2023/10/31 02:56:01;;;;;;;0.80;0.80;;;19.30;57.50;;;;;;5033205;28;20188;-84
2023/10/31 02:58:30;;;;;;;0.60;0.60;;;19.30;57.50;;;;;;5033628;28;20288;-84
2023/10/31 03:00:57;;;;;;;0.85;0.85;;;19.30;57.50;;;;;;5033028;28;20192;-84
2023/10/31 03:03:24;;;;;;;0.80;0.80;;;19.30;57.50;;;;;;5032682;28;20204;-84
2023/10/31 03:05:50;;;;;;;0.65;0.65;;;19.30;57.50;;;;;;5032893;28;20645;-84
2023/10/31 03:08:20;;;;;;;0.70;0.70;;;19.30;57.50;;;;;;5032764;28;20235;-84
2023/10/31 03:10:50;;;;;;;0.88;0.60;;;19.20;57.50;;;;;;5032077;28;20638;-84
2023/10/31 03:13:17;;;;;;;0.70;0.70;;;19.30;57.50;;;;;;5033349;28;20267;-84
2023/10/31 03:15:46;;;;;;;0.60;0.60;;;19.30;57.60;;;;;;5036380;28;20274;-84
2023/10/31 03:18:14;;;;;;;0.47;0.47;;;19.20;57.50;;;;;;5036434;28;20200;-84
2023/10/31 03:20:44;;;;;;;0.50;0.50;;;19.20;57.60;;;;;;5036388;28;20216;-84
2023/10/31 03:23:10;;;;;;;0.77;0.70;;;19.10;57.50;;;;;;5036117;28;20196;-84
2023/10/31 03:25:38;;;;;;;0.70;0.70;;;19.20;57.60;;;;;;5019794;28;20216;-84
2023/10/31 03:28:05;;;;;;;0.73;0.73;;;19.20;57.60;;;;;;5035950;28;20708;-84
2023/10/31 03:30:32;;;;;;;0.60;0.60;;;19.20;57.60;;;;;;5035789;28;20200;-84
2023/10/31 03:33:01;;;;;;;0.60;0.60;;;19.10;57.50;;;;;;5036812;28;20688;-84
2023/10/31 03:35:29;;;;;;;1.85;0.73;;;19.20;57.60;;;;;;5036220;28;20216;-84
2023/10/31 03:37:56;;;;;;;1.48;0.70;;;19.20;57.60;;;;;;5036778;28;20196;-84
2023/10/31 03:40:22;;;;;;;0.80;0.80;;;19.20;57.60;;;;;;5036300;28;20250;-84
2023/10/31 03:42:49;;;;;;;0.55;0.55;;;19.20;57.60;;;;;;5036058;28;20192;-83
2023/10/31 03:45:17;;;;;;;0.57;0.57;;;19.20;57.70;;;;;;5036258;28;20223;-84
2023/10/31 03:47:44;;;;;;;0.80;0.60;;;19.10;57.50;;;;;;5037120;28;20231;-84
2023/10/31 03:50:13;;;;;;;0.85;0.85;;;19.10;57.60;;;;;;5036083;28;20206;-84
2023/10/31 03:52:40;;;;;;;0.60;0.60;;;19.10;57.50;;;;;;5035727;28;20211;-84
2023/10/31 03:55:08;;;;;;;0.50;0.50;;;19.10;58.20;;;;;;5035479;28;20211;-84
2023/10/31 03:57:35;;;;;;;2.67;0.70;;;19.10;57.60;;;;;;5035606;28;20707;-84
2023/10/31 04:00:04;;;;;;;0.80;0.70;;;19.10;57.60;;;;;;5035652;28;20224;-84
2023/10/31 04:02:40;;;;;;;0.63;0.63;;;19.10;57.60;;;;;;5035855;28;20183;-84
2023/10/31 04:05:09;;;;;;;0.70;0.70;;;19.10;57.60;;;;;;5036353;28;20678;-84
2023/10/31 04:07:38;;;;;;;0.77;0.77;;;19.10;57.50;;;;;;5035238;28;20219;-84
2023/10/31 04:10:06;;;;;;;0.75;0.60;;;19.10;57.50;;;;;;5035902;28;20204;-84
2023/10/31 04:12:33;;;;;;;0.77;0.77;;;19.00;57.50;;;;;;5020170;28;20204;-84
2023/10/31 04:15:01;;;;;;;0.43;0.40;;;19.00;57.50;;;;;;5035342;28;20212;-84
2023/10/31 04:17:29;;;;;;;0.50;0.50;;;19.00;57.50;;;;;;5035472;28;20198;-84
2023/10/31 04:19:56;;;;;;;0.77;0.60;;;19.00;57.50;;;;;;5034936;28;20231;-84
2023/10/31 04:22:23;;;;;;;1.00;0.70;;;19.00;57.40;;;;;;5034895;28;20624;-84
2023/10/31 04:24:51;;;;;;;0.45;0.45;;;19.00;57.40;;;;;;5034582;28;20314;-84
2023/10/31 04:27:18;;;;;;;0.57;0.57;;;19.00;57.40;;;;;;5035379;28;20617;-84
2023/10/31 04:29:45;;;;;;;0.57;0.57;;;19.00;57.40;;;;;;5034681;28;20200;-84
2023/10/31 04:32:12;;;;;;;0.57;0.57;;;19.00;57.40;;;;;;5034895;28;20250;-84
2023/10/31 04:34:39;;;;;;;0.50;0.50;;;19.00;57.40;;;;;;5034582;28;20212;-84
2023/10/31 04:37:06;;;;;;;0.60;0.60;;;19.10;57.40;;;;;;5034509;28;20196;-84
2023/10/31 04:39:34;;;;;;;0.73;0.60;;;19.10;57.30;;;;;;5018275;28;20204;-84
2023/10/31 04:42:02;;;;;;;0.63;0.63;;;19.10;57.30;;;;;;5034422;28;20251;-84
2023/10/31 04:44:30;;;;;;;0.95;0.95;;;19.10;57.20;;;;;;5034365;28;20238;-84
2023/10/31 04:46:57;;;;;;;0.60;0.60;;;19.20;57.20;;;;;;5034353;28;20216;-84
2023/10/31 04:49:24;;;;;;;0.50;0.50;;;19.20;57.10;;;;;;5035570;28;20250;-84
2023/10/31 04:51:51;;;;;;;0.57;0.57;;;19.20;57.00;;;;;;5034937;28;20607;-84
2023/10/31 04:54:18;;;;;;;0.88;0.88;;;19.20;57.00;;;;;;5035412;28;20220;-84
2023/10/31 04:56:45;;;;;;;0.50;0.50;;;19.20;56.90;;;;;;5035770;28;20266;-84
2023/10/31 04:59:14;;;;;;;0.50;0.50;;;19.20;56.90;;;;;;5035723;28;20294;-84
2023/10/31 05:01:40;;;;;;;0.75;0.75;;;19.20;56.90;;;;;;5034534;28;20232;-84
2023/10/31 05:04:08;;;;;;;1.70;0.73;;;19.20;57.00;;;;;;5018205;28;20266;-84
2023/10/31 05:06:35;;;;;;;0.65;0.65;;;19.20;56.80;;;;;;5018138;28;20215;-84
2023/10/31 05:09:02;;;;;;;0.70;0.68;;;19.20;56.80;;;;;;5018091;28;20204;-84
2023/10/31 05:11:29;;;;;;;1.13;0.60;;;19.20;56.80;;;;;;5094780;22;20227;-81
2023/10/31 05:13:56;;;;;;;0.80;0.63;;;19.20;56.90;;;;;;5003964;28;20216;-82
2023/10/31 05:16:24;;;;;;;0.63;0.63;;;19.20;56.80;;;;;;5017523;28;20196;-82
2023/10/31 05:18:52;;;;;;;1.10;0.52;;;19.20;56.90;;;;;;5017737;28;20646;-81
2023/10/31 05:21:20;;;;;;;0.65;0.65;;;19.20;56.80;;;;;;5018656;28;20227;-81
2023/10/31 05:23:47;;;;;;;0.57;0.57;;;19.20;56.80;;;;;;5017200;28;20709;-82
2023/10/31 05:26:14;;;;;;;0.50;0.50;;;19.20;56.80;;;;;;5017192;28;20216;-81
2023/10/31 05:28:41;;;;;;;0.60;0.60;;;19.20;56.80;;;;;;5017455;28;20204;-82
2023/10/31 05:31:08;;;;;;;0.50;0.50;;;19.20;56.80;;;;;;5017517;28;20303;-81
2023/10/31 05:33:37;;;;;;;0.70;0.70;;;19.10;56.70;;;;;;5019552;28;20238;-82
2023/10/31 05:36:05;;;;;;;0.57;0.55;;;19.10;56.80;;;;;;5017597;28;20200;-82
2023/10/31 05:38:32;;;;;;;0.55;0.55;;;19.10;56.80;;;;;;5017622;28;20204;-83
2023/10/31 05:41:00;;;;;;;0.50;0.50;;;19.10;56.70;;;;;;5017569;28;20250;-84
2023/10/31 05:43:27;;;;;;;0.52;0.52;;;19.10;56.80;;;;;;4985078;28;20596;-84
2023/10/31 05:45:54;;;;;;;1.20;0.40;;;19.10;56.80;;;;;;5001500;28;20208;-84
2023/10/31 05:48:22;;;;;;;0.73;0.50;;;19.20;56.80;;;;;;5017656;28;20231;-84
2023/10/31 05:50:50;;;;;;;0.55;0.55;;;19.10;56.80;;;;;;5017654;28;20215;-84
2023/10/31 05:53:17;;;;;;;0.60;0.60;;;19.20;56.80;;;;;;5017842;28;20200;-83
2023/10/31 05:55:45;;;;;;;0.55;0.55;;;19.20;56.80;;;;;;5001300;28;20323;-83
2023/10/31 05:58:12;;;;;;;0.45;0.45;;;19.20;56.80;;;;;;5018154;28;20188;-83
2023/10/31 06:00:39;;;;;;;0.43;0.43;;;19.20;56.80;;;;;;5017281;28;20196;-83
2023/10/31 06:03:06;;;;;;;0.52;0.50;;;19.20;56.80;;;;;;5017125;28;20204;-83
2023/10/31 06:05:33;;;;;;;0.60;0.60;;;19.10;56.60;;;;;;5022796;28;20220;-83
2023/10/31 06:08:01;;;;;;;0.57;0.57;;;19.10;56.60;;;;;;5040479;28;20220;-84
2023/10/31 06:10:29;;;;;;;0.85;0.70;;;19.20;56.80;;;;;;5041169;28;20200;-84
2023/10/31 06:12:55;;;;;;;0.63;0.63;;;19.20;56.70;;;;;;5039044;28;20219;-83
2023/10/31 06:15:23;;;;;;;0.82;0.68;;;19.10;56.70;;;;;;5031314;28;20356;-84
2023/10/31 06:17:49;;;;;;;1.27;0.63;;;19.20;56.80;;;;;;5030987;28;20192;-84
2023/10/31 06:20:16;;;;;;;0.80;0.63;;;19.20;56.80;;;;;;5001643;28;20202;-83
2023/10/31 06:22:43;;;;;;;0.60;0.60;;;19.10;56.70;;;;;;5018412;28;20204;-84
2023/10/31 06:25:12;;;;;;;0.57;0.57;;;19.10;56.70;;;;;;5018182;28;20233;-83
2023/10/31 06:27:40;;;;;;;0.55;0.55;;;19.20;56.80;;;;;;5002241;28;20685;-84
2023/10/31 06:30:08;;;;;;;0.60;0.60;;;19.20;56.80;;;;;;5012979;28;20192;-84
2023/10/31 06:32:36;;;;;;;0.77;0.77;;;19.10;56.70;;;;;;5028288;28;20211;-84
2023/10/31 06:35:03;;;;;;;0.77;0.50;;;19.20;56.80;;;;;;5027655;28;20319;-84
2023/10/31 06:37:30;;;;;;;0.50;0.50;;;19.20;56.80;;;;;;5011279;28;20196;-84
2023/10/31 06:39:57;;;;;;;0.40;0.40;;;19.20;56.80;;;;;;5026787;28;20246;-84
2023/10/31 06:42:26;;;;;;;0.50;0.50;;;19.20;56.80;;;;;;5025835;28;20210;-84
2023/10/31 06:44:53;;;;;;;0.50;0.50;;;19.20;56.80;;;;;;5042838;28;20270;-84
2023/10/31 06:47:20;;;;;;;1.17;0.50;;;19.20;56.80;;;;;;5027399;28;20220;-84
2023/10/31 06:49:47;;;;;;;0.60;0.60;;;19.20;56.70;;;;;;5029025;28;20596;-84
2023/10/31 06:52:15;;;;;;;0.80;0.80;;;19.20;56.60;;;;;;5028180;28;20684;-83
2023/10/31 06:54:42;;;;;;;1.15;0.70;;;19.20;56.60;;;;;;5027329;28;20341;-84
2023/10/31 06:57:09;;;;;;;0.70;0.70;;;19.20;56.60;;;;;;5020504;28;20290;-84
2023/10/31 06:59:38;;;;;;;0.50;0.50;;;19.20;56.60;;;;;;5021160;28;20199;-84
2023/10/31 07:02:05;;;;;;;0.47;0.47;;;19.20;56.50;;;;;;5020729;28;20612;-83
2023/10/31 07:04:32;;;;;;;1.20;0.60;;;19.20;56.50;;;;;;5004266;28;20216;-84
2023/10/31 07:06:59;;;;;;;0.60;0.60;;;19.20;56.40;;;;;;5020994;28;20220;-84
2023/10/31 07:09:26;;;;;;;0.50;0.50;;;19.20;56.30;;;;;;5006140;28;20222;-84
2023/10/31 07:11:54;;;;;;;0.55;0.55;;;19.20;56.30;;;;;;5022550;28;20714;-83
2023/10/31 07:14:21;;;;;;;0.50;0.50;;;19.20;56.40;;;;;;5023652;28;20220;-83
2023/10/31 07:16:49;;;;;;;0.45;0.45;;;19.20;56.40;;;;;;5025626;28;20192;-83
2023/10/31 07:19:16;;;;;;;0.50;0.50;;;19.20;56.40;;;;;;5025672;28;20624;-83
2023/10/31 07:21:44;;;;;;;0.70;0.70;;;19.20;56.30;;;;;;4993109;28;20216;-83
2023/10/31 07:24:10;;;;;;;0.60;0.60;;;19.20;56.30;;;;;;5009453;28;20282;-83
2023/10/31 07:26:38;;;;;;;0.55;0.52;;;19.30;56.30;;;;;;5025252;28;20196;-83
2023/10/31 07:29:05;;;;;;;0.63;0.63;;;19.30;56.30;;;;;;5008466;28;20203;-83
2023/10/31 07:31:32;;;;;;;0.47;0.47;;;19.30;56.20;;;;;;5024902;28;20721;-83
2023/10/31 07:34:01;;;;;;;0.50;0.50;;;19.30;56.20;;;;;;5024825;28;20705;-83
2023/10/31 07:36:28;;;;;;;0.77;0.77;;;19.30;56.20;;;;;;5024526;28;20567;-84
2023/10/31 07:38:55;;;;;;;0.57;0.57;;;19.30;56.20;;;;;;5021320;28;20242;-83
2023/10/31 07:41:22;;;;;;;0.98;0.60;;;19.40;56.20;;;;;;5005001;28;20227;-84
2023/10/31 07:43:49;;;;;;;0.60;0.60;;;19.40;56.20;;;;;;5021364;28;20230;-84
2023/10/31 07:46:16;;;;;;;1.40;0.50;;;19.40;56.20;;;;;;5020360;28;20254;-83
2023/10/31 07:48:43;;;;;;;0.95;0.50;;;19.40;56.20;;;;;;5019571;28;20220;-83
2023/10/31 07:51:12;;;;;;;0.50;0.40;;;19.40;56.10;;;;;;5019216;28;20651;-83
2023/10/31 07:53:39;;;;;;;0.40;0.40;;;19.50;56.10;;;;;;5019496;28;20200;-84
2023/10/31 07:56:09;;;;;;;0.82;0.50;;;19.50;55.90;;;;;;5019597;28;20200;-84
2023/10/31 07:58:37;;;;;;;0.40;0.40;;;19.50;55.90;;;;;;5018055;28;20564;-83
2023/10/31 08:01:04;;;;;;;0.82;0.50;;;19.60;55.90;;;;;;5020155;28;20203;-84
2023/10/31 08:03:31;;;;;;;0.65;0.50;;;19.60;55.70;;;;;;5020540;28;20208;-83
2023/10/31 08:06:00;;;;;;;0.60;0.60;;;19.60;55.60;;;;;;5020085;28;20196;-84
2023/10/31 08:08:28;;;;;;;0.50;0.50;;;19.70;55.60;;;;;;5020337;28;20208;-83
2023/10/31 08:10:57;;;;;;;0.60;0.60;;;19.70;55.50;;;;;;5019728;28;20208;-84
2023/10/31 08:13:25;;;;;;;0.50;0.50;;;19.70;55.50;;;;;;5019954;28;20200;-84
2023/10/31 08:15:52;;;;;;;0.55;0.55;;;19.70;55.40;;;;;;5019947;28;20196;-84
2023/10/31 08:18:20;;;;;;;0.55;0.55;;;19.70;55.30;;;;;;5019449;28;20294;-84
2023/10/31 08:20:49;;;;;;;0.60;0.60;;;19.80;55.40;;;;;;5018970;28;20196;-83
2023/10/31 08:23:16;;;;;;;0.73;0.52;;;19.80;55.30;;;;;;5019402;28;20200;-84
2023/10/31 08:25:45;;;;;;;0.60;0.60;;;19.90;55.20;;;;;;5018829;28;20227;-84
2023/10/31 08:28:12;;;;;;;0.50;0.50;;;19.90;55.20;;;;;;5018676;28;20216;-84
2023/10/31 08:30:40;;;;;;;0.90;0.68;;;19.90;55.00;;;;;;5018884;28;20274;-84
2023/10/31 08:33:07;;;;;;;0.82;0.50;;;20.00;54.90;;;;;;5018765;28;20235;-84
2023/10/31 08:35:34;;;;;;;0.60;0.57;;;20.10;54.80;;;;;;5002335;28;20311;-84
2023/10/31 08:38:01;;;;;;;1.92;0.93;;;20.00;54.60;;;;;;5018835;28;20655;-84
2023/10/31 08:40:28;;;;;;;0.85;0.40;;;20.20;54.70;;;;;;5018621;28;20196;-84
2023/10/31 08:42:56;;;;;;;0.75;0.75;;;20.30;54.50;;;;;;5018357;28;20196;-84
2023/10/31 08:45:23;;;;;;;0.90;0.70;;;20.30;54.30;;;;;;5019664;28;20220;-84
2023/10/31 08:47:51;;;;;;;1.50;0.52;;;20.40;54.20;;;;;;5019612;28;20251;-84
2023/10/31 08:50:18;;;;;;;0.50;0.50;;;20.50;54.20;;;;;;5020864;28;20294;-83
2023/10/31 08:52:45;;;;;;;0.43;0.40;;;20.50;54.00;;;;;;5029209;28;20570;-84
2023/10/31 08:55:12;;;;;;;0.50;0.50;;;20.60;54.00;;;;;;5017903;28;20223;-84
2023/10/31 08:57:39;;;;;;;0.95;0.80;;;20.60;53.90;;;;;;5018048;28;20192;-84
2023/10/31 09:00:09;;;;;;;1.08;0.70;;;20.70;53.70;;;;;;5001831;28;20298;-84
2023/10/31 09:02:37;;;;;;;0.55;0.55;;;20.70;53.60;;;;;;5018087;28;20215;-84
2023/10/31 09:05:04;;;;;;;0.82;0.50;;;20.70;53.60;;;;;;4985700;28;20224;-84
2023/10/31 09:07:32;;;;;;;0.77;0.60;;;20.80;53.40;;;;;;5018258;28;20220;-83
2023/10/31 09:09:59;;;;;;;0.77;0.77;;;20.80;53.30;;;;;;4985645;28;20207;-84
2023/10/31 09:12:26;;;;;;;1.35;0.60;;;20.90;53.40;;;;;;5018740;28;20243;-84
2023/10/31 09:14:53;;;;;;;0.63;0.60;;;20.90;53.20;;;;;;5018561;28;20755;-84
2023/10/31 09:17:22;;;;;;;0.82;0.80;;;21.00;53.30;;;;;;5018565;28;20216;-84
2023/10/31 09:19:49;;;;;;;0.75;0.63;;;21.00;53.20;;;;;;5018444;28;20196;-84
2023/10/31 09:22:16;;;;;;;0.77;0.70;;;21.00;53.10;;;;;;5019306;28;20200;-84
2023/10/31 09:24:43;;;;;;;0.50;0.50;;;21.00;53.10;;;;;;5018785;28;20220;-83
2023/10/31 09:27:11;;;;;;;0.40;0.40;;;21.00;52.80;;;;;;5041673;28;20202;-83
2023/10/31 09:29:38;;;;;;;0.73;0.57;;;21.10;52.90;;;;;;5019581;28;20200;-84
2023/10/31 09:32:07;;;;;;;0.50;0.50;;;21.10;53.00;;;;;;5017791;28;20258;-84
2023/10/31 09:34:35;;;;;;;1.15;0.60;;;21.10;53.10;;;;;;5018484;28;20222;-84
2023/10/31 09:37:03;;;;;;;0.98;0.60;;;21.10;53.20;;;;;;5018381;28;20666;-84
2023/10/31 09:39:30;;;;;;;0.60;0.60;;;21.10;53.20;;;;;;5018662;28;20258;-84
2023/10/31 09:41:57;;;;;;;0.77;0.70;;;21.10;53.20;;;;;;5018823;28;20290;-84
2023/10/31 09:44:24;;;;;;;0.50;0.50;;;21.20;53.20;;;;;;5019380;28;20270;-84
2023/10/31 09:46:52;;;;;;;0.85;0.68;;;21.20;53.00;;;;;;5018839;28;20204;-84
2023/10/31 09:49:19;;;;;;;0.47;0.43;;;21.30;53.00;;;;;;5018852;28;20219;-84
2023/10/31 09:51:49;;;;;;;0.40;0.40;;;21.30;53.00;;;;;;5018788;28;20226;-83
2023/10/31 09:54:16;;;;;;;0.45;0.40;;;21.30;52.90;;;;;;5019404;28;20315;-84
2023/10/31 09:56:43;;;;;;;0.30;0.30;;;21.30;52.90;;;;;;5018839;28;20204;-84
2023/10/31 09:59:10;;;;;;;0.47;0.47;;;21.40;52.60;;;;;;5018190;28;20184;-84
2023/10/31 10:01:37;;;;;;;0.60;0.60;;;21.40;52.80;;;;;;5018328;28;20258;-84
2023/10/31 10:04:04;;;;;;;0.50;0.50;;;21.40;52.60;;;;;;5019262;28;20591;-84
2023/10/31 10:06:31;;;;;;;0.60;0.60;;;21.50;52.60;;;;;;5018475;28;20257;-84
2023/10/31 10:09:03;;;;;;;1.27;0.50;;;21.50;52.20;;;;;;5018294;28;20231;-84
2023/10/31 10:11:30;;;;;;;0.50;0.50;;;21.50;52.10;;;;;;5018103;28;20223;-84
2023/10/31 10:13:58;;;;;;;0.57;0.57;;;21.60;52.10;;;;;;5018630;28;20216;-84
2023/10/31 10:16:34;;;;;;;0.75;0.75;;;21.60;52.10;;;;;;5018012;28;20196;-84
2023/10/31 10:19:16;;;;;;;0.63;0.50;;;21.60;52.00;;;;;;5019151;28;20207;-84
2023/10/31 10:21:48;;;;;;;0.52;0.50;;;21.50;51.90;;;;;;5016214;28;20642;-84
2023/10/31 10:24:16;;;;;;;1.08;0.70;;;21.50;51.90;;;;;;5000929;28;20219;-83
2023/10/31 10:26:44;;;;;;;0.68;0.40;;;21.50;51.90;;;;;;5017297;28;20216;-84
2023/10/31 10:29:11;;;;;;;0.77;0.60;;;21.40;52.00;;;;;;5018026;28;20222;-84
2023/10/31 10:31:38;;;;;;;0.93;0.60;;;21.40;52.20;;;;;;5017630;28;20307;-84
2023/10/31 10:34:05;;;;;;;1.02;0.50;;;21.40;52.10;;;;;;5017347;28;20220;-84
2023/10/31 10:36:33;;;;;;;0.47;0.47;;;21.40;52.20;;;;;;5017543;28;20261;-84
2023/10/31 10:39:00;;;;;;;0.60;0.52;;;21.40;52.30;;;;;;5001495;28;20188;-84
2023/10/31 10:41:29;;;;;;;0.68;0.68;;;21.40;52.30;;;;;;5003062;28;20203;-84
2023/10/31 10:43:57;;;;;;;0.60;0.60;;;21.40;52.30;;;;;;5021207;28;20216;-84
2023/10/31 10:46:25;;;;;;;0.85;0.50;;;21.30;52.10;;;;;;5021491;28;20219;-84
2023/10/31 10:48:55;;;;;;;0.88;0.60;;;21.40;52.30;;;;;;5021302;28;20313;-84
2023/10/31 10:51:26;;;;;;;0.50;0.50;;;21.40;52.30;;;;;;5020831;28;20612;-84
2023/10/31 10:53:56;;;;;;;0.52;0.52;;;21.40;52.40;;;;;;5017984;28;20764;-84
2023/10/31 10:56:27;;;;;;;0.95;0.50;;;21.40;52.40;;;;;;5001589;28;20200;-84
2023/10/31 10:59:02;;;;;;;0.88;0.40;;;21.30;52.30;;;;;;5019158;28;20226;-84
2023/10/31 11:01:30;;;;;;;0.40;0.40;;;21.30;52.50;;;;;;5019351;28;20231;-84
2023/10/31 11:03:57;;;;;;;0.63;0.63;;;21.30;52.70;;;;;;5018668;28;20226;-84
2023/10/31 11:06:24;;;;;;;0.88;0.70;;;21.20;52.50;;;;;;5019165;28;20239;-84
2023/10/31 11:08:51;;;;;;;1.58;0.70;;;21.20;52.60;;;;;;5019095;28;20266;-84
2023/10/31 11:11:18;;;;;;;1.10;0.65;;;21.20;53.20;;;;;;5019031;28;20200;-83
2023/10/31 11:13:46;;;;;;;0.40;0.40;;;21.20;52.60;;;;;;5018010;28;20200;-84
2023/10/31 11:16:18;;;;;;;0.57;0.57;;;21.20;52.60;;;;;;5002247;28;20227;-84
2023/10/31 11:18:45;;;;;;;0.68;0.60;;;21.20;52.70;;;;;;5018387;28;20188;-84
2023/10/31 11:21:13;;;;;;;0.50;0.50;;;21.10;53.20;;;;;;5001887;28;20254;-84
2023/10/31 11:23:40;;;;;;;0.75;0.70;;;21.10;52.60;;;;;;5018025;28;20199;-84
2023/10/31 11:26:08;;;;;;;0.93;0.65;;;21.10;52.60;;;;;;5018109;28;20218;-84
2023/10/31 11:28:35;;;;;;;0.80;0.80;;;21.20;52.80;;;;;;5017668;28;20382;-84
2023/10/31 11:31:02;;;;;;;0.63;0.63;;;21.10;52.70;;;;;;5002161;28;20200;-84
2023/10/31 11:33:31;;;;;;;0.55;0.55;;;21.10;52.70;;;;;;5002145;28;20196;-84
2023/10/31 11:36:01;;;;;;;0.45;0.45;;;21.10;52.70;;;;;;5021501;28;20643;-84
2023/10/31 11:38:33;;;;;;;0.70;0.70;;;21.10;52.80;;;;;;5020994;28;20662;-84
2023/10/31 11:41:01;;;;;;;0.90;0.63;;;21.10;52.80;;;;;;5019993;28;20677;-84
2023/10/31 11:43:37;;;;;;;0.70;0.70;;;21.10;52.80;;;;;;5020361;28;20235;-84
2023/10/31 11:46:04;;;;;;;0.45;0.45;;;21.10;53.00;;;;;;5020691;28;20226;-84
2023/10/31 11:48:50;;;;;;;0.73;0.60;;;21.10;52.80;;;;;;5020940;28;20744;-84
2023/10/31 11:51:17;;;;;;;0.63;0.63;;;21.10;52.80;;;;;;5020843;28;20230;-84
2023/10/31 11:53:44;;;;;;;0.63;0.60;;;21.10;52.70;;;;;;5021659;28;20569;-84
2023/10/31 11:56:19;;;;;;;0.70;0.70;;;21.10;52.80;;;;;;5022735;28;20222;-84
2023/10/31 11:58:55;;;;;;;0.98;0.70;;;21.10;52.80;;;;;;5020602;28;20192;-84
2023/10/31 12:01:22;;;;;;;1.42;0.77;;;21.10;52.90;;;;;;5020279;28;20287;-84
2023/10/31 12:03:51;;;;;;;1.30;0.90;;;21.00;52.70;;;;;;5003249;28;20228;-84
2023/10/31 12:06:20;;;;;;;0.65;0.65;;;21.00;52.80;;;;;;5019200;28;20200;-84
2023/10/31 12:08:48;;;;;;;0.85;0.60;;;21.00;52.80;;;;;;5019591;28;20212;-84
2023/10/31 12:11:17;;;;;;;0.75;0.70;;;21.00;53.00;;;;;;5022916;28;20535;-84
2023/10/31 12:13:54;;;;;;;0.85;0.70;;;20.90;52.90;;;;;;5040853;28;20223;-84
2023/10/31 12:16:23;;;;;;;0.47;0.47;;;21.00;53.10;;;;;;5041956;28;20302;-82
2023/10/31 12:18:57;;;;;;;1.10;0.70;;;21.00;53.20;;;;;;5040523;28;20192;-83
2023/10/31 12:21:36;;;;;;;1.25;0.90;;;21.00;53.20;;;;;;5020027;28;20192;-83
2023/10/31 12:24:04;;;;;;;1.35;1.05;;;20.90;53.20;;;;;;5033391;28;20224;-83
2023/10/31 12:26:32;;;;;;;1.60;1.10;;;20.90;53.30;;;;;;5032478;28;20200;-84
2023/10/31 12:29:10;;;;;;;1.15;0.95;;;20.90;53.30;;;;;;5032139;28;20220;-84
2023/10/31 12:31:41;;;;;;;1.42;1.00;;;20.90;53.40;;;;;;5035229;28;20195;-84
2023/10/31 12:34:10;;;;;;;1.08;1.00;;;21.00;53.40;;;;;;5024246;28;20224;-84
2023/10/31 12:36:37;;;;;;;1.00;0.90;;;20.90;53.40;;;;;;5018536;28;20200;-84
2023/10/31 12:39:04;;;;;;;1.75;1.15;;;20.90;53.50;;;;;;5018575;28;20562;-84
2023/10/31 12:41:31;;;;;;;0.90;0.90;;;20.90;53.60;;;;;;5018299;28;20200;-84
2023/10/31 12:43:58;;;;;;;1.23;1.05;;;20.90;53.60;;;;;;5018702;28;20222;-84
2023/10/31 12:46:26;;;;;;;0.90;0.90;;;20.90;53.60;;;;;;5018103;28;20200;-84
2023/10/31 12:48:53;;;;;;;1.88;1.00;;;20.90;53.60;;;;;;5002454;28;20215;-84
2023/10/31 12:51:22;;;;;;;1.48;1.00;;;20.90;53.60;;;;;;5002011;28;20196;-84